createdAt,value
2022-12-31T00:02:02.416Z,49.20
2022-12-31T00:06:31.798Z,51.60
2022-12-31T00:10:39.417Z,44.60
2022-12-31T00:14:41.314Z,52.40
2022-12-31T00:18:49.518Z,47.00
2022-12-31T00:22:51.479Z,46.60
2022-12-31T00:26:53.358Z,45.90
2022-12-31T00:30:55.284Z,49.20
2022-12-31T00:34:57.188Z,49.30
2022-12-31T00:39:00.766Z,42.40
2022-12-31T00:43:02.611Z,43.30
2022-12-31T00:47:04.572Z,46.50
2022-12-31T00:51:10.734Z,37.90
2022-12-31T00:55:12.617Z,43.40
2022-12-31T00:59:14.489Z,43.60
2022-12-31T01:03:16.408Z,38.40
2022-12-31T01:07:18.423Z,38.30
2022-12-31T01:11:23.446Z,38.50
2022-12-31T01:15:25.908Z,42.20
2022-12-31T01:19:28.935Z,39.20
2022-12-31T01:23:31.129Z,35.50
2022-12-31T01:27:33.035Z,40.10
2022-12-31T01:31:36.587Z,34.80
2022-12-31T01:35:38.495Z,39.70
2022-12-31T01:39:40.420Z,41.70
2022-12-31T01:43:54.912Z,39.70
2022-12-31T01:47:59.179Z,38.10
2022-12-31T01:52:20.877Z,38.40
2022-12-31T01:56:23.913Z,34.00
2022-12-31T02:00:25.954Z,29.70
2022-12-31T02:04:28.875Z,37.40
2022-12-31T02:08:31.195Z,38.50
2022-12-31T02:12:34.917Z,33.40
2022-12-31T02:17:03.111Z,33.90
2022-12-31T02:21:26.558Z,31.90
2022-12-31T02:26:07.825Z,36.00
2022-12-31T02:30:16.841Z,28.10
2022-12-31T02:34:24.428Z,35.20
2022-12-31T02:38:37.852Z,32.10
2022-12-31T02:42:39.754Z,32.10
2022-12-31T02:46:51.148Z,25.40
2022-12-31T02:51:11.389Z,27.40
2022-12-31T02:55:40.856Z,24.00
2022-12-31T03:00:20.380Z,26.70
2022-12-31T03:04:33.667Z,26.60
2022-12-31T03:08:55.798Z,26.30
2022-12-31T03:12:58.180Z,25.30
2022-12-31T03:17:00.348Z,27.30
2022-12-31T03:21:21.135Z,21.70
2022-12-31T03:25:35.564Z,24.00
2022-12-31T03:29:37.573Z,18.80
2022-12-31T03:33:41.243Z,21.00
2022-12-31T03:37:43.630Z,22.90
2022-12-31T03:41:45.499Z,18.40
2022-12-31T03:45:50.818Z,22.80
2022-12-31T03:49:52.994Z,19.40
2022-12-31T03:53:54.958Z,21.50
2022-12-31T03:57:56.820Z,21.80
2022-12-31T04:01:58.840Z,21.20
2022-12-31T04:06:00.811Z,15.80
2022-12-31T04:10:04.771Z,18.30
2022-12-31T04:14:06.675Z,16.60
2022-12-31T04:18:08.605Z,19.80
2022-12-31T04:22:10.488Z,13.90
2022-12-31T04:26:12.408Z,18.20
2022-12-31T04:30:14.791Z,17.70
2022-12-31T04:34:16.689Z,14.80
2022-12-31T04:38:18.532Z,16.70
2022-12-31T04:42:20.441Z,13.70
2022-12-31T04:46:33.307Z,16.00
2022-12-31T04:50:35.218Z,15.90
2022-12-31T04:54:37.091Z,15.20
2022-12-31T04:58:40.522Z,14.20
2022-12-31T05:02:42.489Z,15.80
2022-12-31T05:06:44.825Z,14.90
2022-12-31T05:10:48.781Z,14.40
2022-12-31T05:14:50.609Z,12.40
2022-12-31T05:18:52.502Z,14.30
2022-12-31T05:22:54.962Z,13.90
2022-12-31T05:26:57.844Z,12.50
2022-12-31T05:31:00.226Z,12.00
2022-12-31T05:35:02.835Z,11.80
2022-12-31T05:39:04.716Z,12.00
2022-12-31T05:43:06.720Z,11.90
2022-12-31T05:47:08.537Z,12.90
2022-12-31T05:51:10.424Z,10.70
2022-12-31T05:55:12.800Z,16.20
2022-12-31T05:59:14.662Z,11.40
2022-12-31T06:03:16.752Z,12.30
2022-12-31T06:07:18.814Z,12.30
2022-12-31T06:11:20.878Z,11.80
2022-12-31T06:15:22.809Z,10.80
2022-12-31T06:19:24.830Z,10.60
2022-12-31T06:23:27.293Z,11.50
2022-12-31T06:27:29.155Z,10.70
2022-12-31T06:31:31.247Z,11.40
2022-12-31T06:35:33.267Z,11.10
2022-12-31T06:39:35.138Z,10.90
2022-12-31T06:43:38.220Z,10.90
2022-12-31T06:47:40.197Z,12.40
2022-12-31T06:51:42.085Z,12.00
2022-12-31T06:55:44.356Z,12.90
2022-12-31T06:59:46.558Z,14.10
2022-12-31T07:04:00.980Z,12.00
2022-12-31T07:08:44.358Z,11.30
2022-12-31T07:13:05.142Z,11.80
2022-12-31T07:17:27.267Z,12.50
2022-12-31T07:21:38.681Z,11.70
2022-12-31T07:25:50.133Z,14.10
2022-12-31T07:30:04.022Z,14.50
2022-12-31T07:34:33.475Z,13.30
2022-12-31T07:39:00.437Z,15.10
2022-12-31T07:43:11.373Z,15.60
2022-12-31T07:47:22.300Z,12.90
2022-12-31T07:51:24.692Z,15.30
2022-12-31T07:55:27.049Z,15.00
2022-12-31T08:00:01.465Z,15.70
2022-12-31T08:04:23.024Z,15.60
2022-12-31T08:08:41.255Z,15.10
2022-12-31T08:12:45.037Z,18.40
2022-12-31T08:16:47.398Z,18.90
2022-12-31T08:21:04.249Z,15.80
2022-12-31T08:25:25.013Z,16.80
2022-12-31T08:29:32.707Z,15.60
2022-12-31T08:33:43.555Z,17.40
2022-12-31T08:38:02.888Z,18.50
2022-12-31T08:42:37.706Z,16.70
2022-12-31T08:46:55.349Z,14.70
2022-12-31T08:50:57.615Z,18.10
2022-12-31T08:54:59.861Z,13.70
2022-12-31T08:59:17.316Z,16.50
2022-12-31T09:03:50.213Z,22.00
2022-12-31T09:07:58.071Z,21.70
2022-12-31T09:12:05.709Z,18.30
2022-12-31T09:20:45.231Z,19.30
2022-12-31T09:24:47.821Z,19.10
2022-12-31T09:28:49.719Z,16.80
2022-12-31T09:33:07.889Z,16.20
2022-12-31T09:37:28.992Z,16.90
2022-12-31T09:41:42.690Z,18.40
2022-12-31T09:45:47.235Z,17.50
2022-12-31T09:49:54.970Z,16.00
2022-12-31T09:54:21.869Z,15.60
2022-12-31T09:58:32.541Z,16.50
2022-12-31T10:03:14.323Z,14.40
2022-12-31T10:07:31.628Z,18.00
2022-12-31T10:12:04.219Z,19.20
2022-12-31T10:16:15.405Z,19.20
2022-12-31T10:20:46.990Z,16.50
2022-12-31T10:25:16.898Z,15.40
2022-12-31T10:29:39.538Z,15.00
2022-12-31T10:33:53.946Z,14.80
2022-12-31T10:38:01.683Z,17.00
2022-12-31T10:42:57.310Z,15.90
2022-12-31T10:47:20.428Z,16.60
2022-12-31T10:51:46.935Z,16.80
2022-12-31T10:56:13.217Z,15.30
2022-12-31T11:00:22.802Z,18.10
2022-12-31T11:05:05.601Z,18.80
2022-12-31T11:09:16.277Z,15.30
2022-12-31T11:13:45.492Z,15.00
2022-12-31T11:18:17.403Z,17.80
2022-12-31T11:22:22.412Z,14.40
2022-12-31T11:26:27.336Z,17.00
2022-12-31T11:31:07.477Z,15.90
2022-12-31T11:35:40.301Z,15.70
2022-12-31T11:40:16.779Z,13.60
2022-12-31T11:44:46.992Z,11.70
2022-12-31T11:48:56.538Z,21.10
2022-12-31T11:53:04.685Z,11.20
2022-12-31T11:57:26.748Z,14.10
2022-12-31T12:01:42.490Z,16.10
2022-12-31T12:05:44.491Z,14.20
2022-12-31T12:09:46.756Z,13.90
2022-12-31T12:13:49.016Z,14.30
2022-12-31T12:17:58.160Z,14.60
2022-12-31T12:22:28.726Z,12.40
2022-12-31T12:26:35.596Z,12.80
2022-12-31T12:30:40.804Z,16.50
2022-12-31T12:34:49.181Z,15.60
2022-12-31T12:39:06.211Z,15.90
2022-12-31T12:43:22.887Z,12.40
2022-12-31T12:47:25.808Z,12.00
2022-12-31T12:51:46.182Z,11.00
2022-12-31T12:56:02.582Z,11.60
2022-12-31T13:00:21.772Z,12.50
2022-12-31T13:05:03.542Z,16.50
2022-12-31T13:09:21.890Z,13.10
2022-12-31T13:13:26.992Z,15.10
2022-12-31T13:17:32.081Z,12.80
2022-12-31T13:21:48.009Z,12.20
2022-12-31T13:26:16.070Z,12.90
2022-12-31T13:30:30.523Z,13.00
2022-12-31T13:34:40.625Z,12.80
2022-12-31T13:38:50.281Z,15.30
2022-12-31T13:42:59.987Z,13.70
2022-12-31T13:47:24.193Z,13.10
2022-12-31T13:51:41.568Z,13.70
2022-12-31T13:55:57.461Z,15.20
2022-12-31T14:00:03.817Z,18.50
2022-12-31T14:04:18.078Z,12.20
2022-12-31T14:08:20.049Z,15.10
2022-12-31T14:13:03.716Z,14.50
2022-12-31T14:17:10.849Z,18.70
2022-12-31T14:21:41.955Z,15.60
2022-12-31T14:25:49.414Z,15.70
2022-12-31T14:29:56.720Z,14.90
2022-12-31T14:34:10.654Z,14.60
2022-12-31T14:38:19.007Z,18.20
2022-12-31T14:42:39.871Z,14.80
2022-12-31T14:47:00.170Z,15.90
2022-12-31T14:51:03.895Z,17.00
2022-12-31T14:55:08.933Z,14.70
2022-12-31T14:59:29.840Z,12.80
2022-12-31T15:03:33.204Z,13.90
2022-12-31T15:07:47.733Z,15.80
2022-12-31T15:11:58.768Z,15.00
2022-12-31T15:16:17.761Z,12.40
2022-12-31T15:20:44.127Z,16.80
2022-12-31T15:24:47.290Z,14.20
2022-12-31T15:29:23.793Z,13.80
2022-12-31T15:33:39.853Z,13.30
2022-12-31T15:37:41.709Z,14.70
2022-12-31T15:42:36.056Z,15.30
2022-12-31T15:46:28.626Z,18.80
2022-12-31T15:50:31.253Z,19.90
2022-12-31T15:54:42.050Z,14.70
2022-12-31T15:58:47.188Z,17.50
2022-12-31T16:02:53.900Z,17.80
2022-12-31T16:07:02.524Z,15.40
2022-12-31T16:11:09.486Z,14.50
2022-12-31T16:15:24.450Z,12.00
2022-12-31T16:19:34.226Z,14.70
2022-12-31T16:23:42.385Z,12.10
2022-12-31T16:27:44.765Z,15.20
2022-12-31T16:31:48.968Z,14.30
2022-12-31T16:35:59.417Z,10.90
2022-12-31T16:40:24.316Z,11.40
2022-12-31T16:44:28.112Z,8.80
2022-12-31T16:48:29.985Z,11.60
2022-12-31T16:52:45.519Z,14.70
2022-12-31T16:56:47.753Z,12.40
2022-12-31T17:00:50.988Z,10.20
2022-12-31T17:04:56.240Z,9.60
2022-12-31T17:09:09.572Z,12.90
2022-12-31T17:13:29.372Z,12.60
2022-12-31T17:17:36.810Z,12.90
2022-12-31T17:21:47.169Z,17.80
2022-12-31T17:25:49.110Z,17.20
2022-12-31T17:29:51.041Z,16.70
2022-12-31T17:33:54.658Z,39.10
2022-12-31T17:38:22.327Z,41.70
2022-12-31T17:42:26.999Z,28.70
2022-12-31T17:46:39.904Z,15.60
2022-12-31T17:50:59.522Z,33.90
2022-12-31T17:55:01.461Z,11.80
2022-12-31T17:59:04.731Z,17.40
2022-12-31T18:03:06.630Z,13.40
2022-12-31T18:07:08.560Z,11.10
2022-12-31T18:11:19.901Z,9.10
2022-12-31T18:15:23.357Z,7.40
2022-12-31T18:19:54.286Z,8.80
2022-12-31T18:23:48.015Z,8.90
2022-12-31T18:27:51.096Z,8.10
2022-12-31T18:31:53.464Z,7.70
2022-12-31T18:36:08.749Z,9.30
2022-12-31T18:40:13.122Z,6.70
2022-12-31T18:44:15.877Z,11.20
2022-12-31T18:48:18.291Z,8.00
2022-12-31T18:52:22.444Z,13.10
2022-12-31T18:56:25.078Z,13.00
2022-12-31T19:00:26.961Z,12.10
2022-12-31T19:04:29.235Z,8.80
2022-12-31T19:08:32.495Z,11.40
2022-12-31T19:12:34.410Z,8.80
2022-12-31T19:16:36.338Z,8.00
2022-12-31T19:20:40.585Z,9.70
2022-12-31T19:24:42.569Z,8.30
2022-12-31T19:28:45.493Z,7.40
2022-12-31T19:32:47.491Z,13.60
2022-12-31T19:36:49.373Z,9.30
2022-12-31T19:40:53.029Z,8.20
2022-12-31T19:44:55.166Z,9.40
2022-12-31T19:48:57.146Z,6.90
2022-12-31T19:52:59.934Z,6.90
2022-12-31T19:57:01.779Z,8.10
2022-12-31T20:01:04.188Z,8.20
2022-12-31T20:05:07.050Z,10.90
2022-12-31T20:09:11.108Z,7.60
2022-12-31T20:13:12.942Z,6.20
2022-12-31T20:17:16.270Z,6.00
2022-12-31T20:21:24.370Z,10.00
2022-12-31T20:25:26.289Z,13.60
2022-12-31T20:29:28.315Z,11.70
2022-12-31T20:33:30.499Z,7.50
2022-12-31T20:37:32.918Z,10.10
2022-12-31T20:41:34.977Z,7.60
2022-12-31T20:45:39.841Z,6.30
2022-12-31T20:54:07.323Z,9.30
2022-12-31T20:58:09.171Z,6.50
2022-12-31T21:02:26.539Z,8.40
2022-12-31T21:06:37.343Z,8.30
2022-12-31T21:10:39.222Z,10.20
2022-12-31T21:14:44.684Z,8.40
2022-12-31T21:18:46.954Z,9.20
2022-12-31T21:22:48.843Z,9.10
2022-12-31T21:26:54.006Z,10.80
2022-12-31T21:31:04.747Z,10.30
2022-12-31T21:35:41.196Z,10.20
2022-12-31T21:39:28.722Z,11.20
2022-12-31T21:43:30.933Z,9.80
2022-12-31T21:47:51.441Z,11.40
2022-12-31T21:52:25.768Z,12.00
2022-12-31T21:56:27.756Z,9.70
2022-12-31T22:00:48.679Z,12.30
2022-12-31T22:05:17.289Z,11.40
2022-12-31T22:09:13.227Z,11.30
2022-12-31T22:13:16.174Z,11.00
2022-12-31T22:17:18.033Z,9.70
2022-12-31T22:21:24.863Z,11.20
2022-12-31T22:25:26.788Z,14.00
2022-12-31T22:29:28.698Z,9.50
2022-12-31T22:33:30.820Z,11.60
2022-12-31T22:41:54.962Z,13.10
2022-12-31T22:45:56.809Z,11.80
2022-12-31T22:49:58.855Z,12.80
2022-12-31T22:54:00.723Z,15.50
2022-12-31T22:58:02.595Z,11.40
2022-12-31T23:02:04.491Z,12.40
2022-12-31T23:06:06.418Z,11.30
2022-12-31T23:10:27.621Z,9.80
2022-12-31T23:14:48.240Z,9.60
2022-12-31T23:19:09.199Z,19.40
2022-12-31T23:23:15.950Z,13.10
2022-12-31T23:27:17.849Z,11.80
2022-12-31T23:31:19.813Z,11.90
2022-12-31T23:35:21.957Z,12.00
2022-12-31T23:39:24.044Z,12.10
2022-12-31T23:43:26.402Z,13.80
2022-12-31T23:47:28.253Z,13.10
2022-12-31T23:51:30.180Z,11.20
2022-12-31T23:55:32.469Z,10.70
2022-12-31T23:59:34.324Z,12.30
